Time;durP1;ratioP1;P1;durP2;ratioP2;P2;SDS_P1;SDS_P2;PMS_P1;PMS_P2;Temp;Humidity;BMP_temperature;BMP_pressure;BME280_temperature;BME280_humidity;BME280_pressure;Samples;Min_cycle;Max_cycle;Signal;HPM_P1;HPM_P2
2023/05/24 00:01:36;;;;;;;29.75;4.80;;;8.30;99.90;;;;;;5088128;28;20020;-82
2023/05/24 00:04:02;;;;;;;34.67;6.28;;;8.20;99.90;;;;;;5083332;28;20492;-82
2023/05/24 00:06:28;;;;;;;31.85;5.07;;;8.20;99.90;;;;;;5089865;28;20474;-83
2023/05/24 00:08:54;;;;;;;35.53;7.22;;;8.20;99.90;;;;;;5089559;28;20044;-82
2023/05/24 00:11:20;;;;;;;35.53;6.90;;;8.10;99.90;;;;;;5083578;28;20543;-83
2023/05/24 00:13:48;;;;;;;34.88;5.38;;;8.10;99.90;;;;;;5081838;28;20921;-82
2023/05/24 00:16:14;;;;;;;37.90;5.47;;;8.10;99.90;;;;;;5078911;28;20060;-80
2023/05/24 00:18:45;;;;;;;41.53;6.97;;;8.10;99.90;;;;;;5077354;28;20055;-85
2023/05/24 00:21:14;;;;;;;35.45;5.38;;;8.10;99.90;;;;;;5078898;28;20024;-81
2023/05/24 00:23:41;;;;;;;33.20;5.43;;;8.10;99.90;;;;;;5074488;28;20036;-83
2023/05/24 00:26:08;;;;;;;42.88;6.20;;;8.10;99.90;;;;;;5077064;28;20027;-83
2023/05/24 00:28:44;;;;;;;40.47;6.32;;;8.00;99.90;;;;;;5075287;28;20039;-82
2023/05/24 00:31:09;;;;;;;35.65;7.65;;;8.10;99.90;;;;;;5065910;28;20055;-83
2023/05/24 00:33:35;;;;;;;40.10;8.25;;;8.00;99.90;;;;;;5084023;28;20056;-82
2023/05/24 00:36:00;;;;;;;27.83;5.80;;;8.00;99.90;;;;;;5090347;28;20067;-82
2023/05/24 00:38:26;;;;;;;29.58;5.28;;;8.00;99.90;;;;;;5085694;28;20487;-82
2023/05/24 00:40:55;;;;;;;43.95;6.55;;;7.90;99.90;;;;;;5079005;28;20028;-83
2023/05/24 00:43:21;;;;;;;41.75;7.22;;;8.00;99.90;;;;;;5081738;28;20426;-83
2023/05/24 00:45:46;;;;;;;31.30;6.20;;;8.00;99.90;;;;;;5072597;28;20033;-82
2023/05/24 00:48:13;;;;;;;34.15;6.40;;;8.00;99.90;;;;;;5079916;28;20044;-82
2023/05/24 00:50:39;;;;;;;30.58;6.55;;;8.00;99.90;;;;;;5089236;28;20031;-82
2023/05/24 00:53:05;;;;;;;42.33;7.97;;;8.00;99.90;;;;;;5086282;28;20020;-82
2023/05/24 00:55:35;;;;;;;33.97;7.10;;;8.00;99.90;;;;;;5084143;28;20044;-82
2023/05/24 00:58:01;;;;;;;21.48;5.35;;;8.00;99.90;;;;;;5085638;28;20095;-82
2023/05/24 01:00:28;;;;;;;44.88;5.97;;;8.00;99.90;;;;;;5086356;28;20051;-80
2023/05/24 01:02:54;;;;;;;37.88;5.47;;;8.00;99.90;;;;;;5094145;28;20024;-82
2023/05/24 01:05:20;;;;;;;38.95;5.75;;;8.00;99.90;;;;;;5087663;28;20029;-82
2023/05/24 01:08:03;;;;;;;54.75;7.47;;;8.00;99.90;;;;;;5078513;28;20400;-82
2023/05/24 01:10:45;;;;;;;30.02;5.05;;;8.00;99.90;;;;;;5096483;28;20287;-83
2023/05/24 01:13:47;;;;;;;30.30;5.82;;;8.00;99.90;;;;;;5085610;28;20025;-83
2023/05/24 01:16:20;;;;;;;34.55;6.00;;;8.00;99.90;;;;;;5087969;28;20081;-83
2023/05/24 01:18:59;;;;;;;35.60;7.18;;;8.00;99.90;;;;;;5082382;28;20048;-83
2023/05/24 01:21:50;;;;;;;38.85;6.38;;;7.90;99.90;;;;;;5075595;28;20031;-83
2023/05/24 01:24:19;;;;;;;41.78;6.20;;;8.00;99.90;;;;;;5075409;28;20052;-82
2023/05/24 01:27:04;;;;;;;43.72;4.93;;;8.00;99.90;;;;;;5080301;28;20042;-82
2023/05/24 01:29:31;;;;;;;38.70;6.47;;;7.90;99.90;;;;;;5094140;28;20560;-84
2023/05/24 01:31:57;;;;;;;43.08;7.22;;;7.90;99.90;;;;;;5073274;28;20482;-82
2023/05/24 01:34:24;;;;;;;28.45;5.03;;;8.00;99.90;;;;;;5083436;28;20028;-84
2023/05/24 01:36:50;;;;;;;32.97;5.95;;;8.00;99.90;;;;;;5074492;28;20036;-83
2023/05/24 01:39:16;;;;;;;29.02;6.05;;;7.90;99.90;;;;;;5088565;28;20024;-82
2023/05/24 01:41:48;;;;;;;30.67;6.35;;;7.90;99.90;;;;;;5077536;28;20023;-83
2023/05/24 01:44:30;;;;;;;42.60;5.97;;;7.90;99.90;;;;;;5080229;28;20472;-82
2023/05/24 01:47:24;;;;;;;40.05;6.32;;;7.90;99.90;;;;;;5092496;28;20028;-83
2023/05/24 01:50:06;;;;;;;43.70;6.53;;;7.90;99.90;;;;;;5083359;28;20032;-82
2023/05/24 01:52:34;;;;;;;45.58;6.63;;;7.80;99.90;;;;;;5066119;28;20024;-82
2023/05/24 01:55:01;;;;;;;42.75;7.68;;;7.80;99.90;;;;;;5084793;28;20020;-82
2023/05/24 01:57:28;;;;;;;44.95;7.40;;;7.80;99.90;;;;;;5089467;28;20023;-82
2023/05/24 01:59:55;;;;;;;53.17;7.50;;;7.80;99.90;;;;;;5089217;28;20027;-83
2023/05/24 02:02:21;;;;;;;42.00;6.22;;;7.80;99.90;;;;;;5085878;28;20028;-82
2023/05/24 02:04:47;;;;;;;49.15;6.45;;;7.70;99.90;;;;;;5074619;28;20032;-83
2023/05/24 02:07:13;;;;;;;46.45;6.95;;;7.70;99.90;;;;;;5070676;28;20027;-83
2023/05/24 02:09:40;;;;;;;47.65;7.25;;;7.70;99.90;;;;;;5097995;28;20050;-83
2023/05/24 02:12:06;;;;;;;37.53;7.60;;;7.70;99.90;;;;;;5084756;28;20034;-82
2023/05/24 02:14:31;;;;;;;58.65;8.15;;;7.70;99.90;;;;;;5085562;28;20028;-85
2023/05/24 02:16:57;;;;;;;37.55;6.32;;;7.70;99.90;;;;;;5071865;28;20132;-83
2023/05/24 02:19:23;;;;;;;48.17;7.63;;;7.70;99.90;;;;;;5084319;28;20052;-83
2023/05/24 02:21:50;;;;;;;45.35;7.07;;;7.70;99.90;;;;;;5074922;28;20032;-82
2023/05/24 02:24:17;;;;;;;58.40;7.63;;;7.70;99.90;;;;;;5090883;28;20036;-84
2023/05/24 02:26:43;;;;;;;50.95;7.50;;;7.70;99.90;;;;;;5078322;28;20032;-83
2023/05/24 02:29:09;;;;;;;48.88;7.68;;;7.70;99.90;;;;;;5080353;28;20122;-82
2023/05/24 02:31:35;;;;;;;49.95;7.65;;;7.70;99.90;;;;;;5081082;28;20127;-83
2023/05/24 02:34:01;;;;;;;43.03;7.85;;;7.60;99.90;;;;;;5080315;28;20070;-82
2023/05/24 02:36:31;;;;;;;36.80;6.63;;;7.60;99.90;;;;;;5082148;28;20033;-83
2023/05/24 02:39:12;;;;;;;47.90;10.20;;;7.60;99.90;;;;;;5080442;28;20035;-83
2023/05/24 02:41:37;;;;;;;45.10;7.97;;;7.60;99.90;;;;;;5077014;28;20024;-84
2023/05/24 02:44:03;;;;;;;45.33;7.95;;;7.60;99.90;;;;;;5083081;28;20448;-82
2023/05/24 02:46:28;;;;;;;37.83;6.97;;;7.60;99.90;;;;;;5088676;28;20028;-82
2023/05/24 02:48:54;;;;;;;50.08;7.40;;;7.60;99.90;;;;;;5085077;28;20036;-83
2023/05/24 02:51:20;;;;;;;37.00;7.57;;;7.50;99.90;;;;;;5077979;28;20130;-83
2023/05/24 02:53:45;;;;;;;54.53;8.93;;;7.50;99.90;;;;;;5082651;28;20027;-82
2023/05/24 02:56:16;;;;;;;64.32;8.25;;;7.50;99.90;;;;;;5079814;28;20069;-83
2023/05/24 02:58:43;;;;;;;44.28;7.43;;;7.50;99.90;;;;;;5074843;28;20027;-83
2023/05/24 03:01:11;;;;;;;46.83;9.35;;;7.50;99.90;;;;;;5083500;28;20119;-82
2023/05/24 03:03:38;;;;;;;50.10;8.38;;;7.60;99.90;;;;;;5090151;28;20046;-80
2023/05/24 03:06:05;;;;;;;52.75;8.77;;;7.60;99.90;;;;;;5083854;28;20031;-83
2023/05/24 03:08:31;;;;;;;52.28;7.20;;;7.60;99.90;;;;;;5089932;28;20040;-82
2023/05/24 03:10:57;;;;;;;54.15;9.25;;;7.60;99.90;;;;;;5073727;28;20028;-84
2023/05/24 03:13:23;;;;;;;65.80;10.00;;;7.60;99.90;;;;;;5080797;28;20038;-82
2023/05/24 03:15:48;;;;;;;43.58;8.57;;;7.70;99.90;;;;;;5081759;28;20036;-82
2023/05/24 03:18:14;;;;;;;41.75;7.50;;;7.70;99.90;;;;;;5086776;28;20039;-83
2023/05/24 03:20:40;;;;;;;50.47;10.23;;;7.80;99.90;;;;;;5086800;28;20020;-82
2023/05/24 03:23:06;;;;;;;49.05;8.40;;;7.80;99.90;;;;;;5071919;28;20151;-82
2023/05/24 03:25:31;;;;;;;44.78;8.45;;;7.80;99.90;;;;;;5075864;28;20064;-83
2023/05/24 03:27:57;;;;;;;41.95;7.60;;;7.80;99.90;;;;;;5082433;28;20075;-83
2023/05/24 03:30:23;;;;;;;44.47;8.73;;;7.90;99.90;;;;;;5089106;28;20032;-84
2023/05/24 03:32:49;;;;;;;43.25;7.75;;;7.90;99.90;;;;;;5086615;28;20126;-83
2023/05/24 03:35:15;;;;;;;44.55;8.77;;;7.90;99.90;;;;;;5095723;28;20100;-83
2023/05/24 03:37:40;;;;;;;50.97;7.45;;;7.90;99.90;;;;;;5079290;28;20389;-84
2023/05/24 03:40:06;;;;;;;50.70;7.75;;;7.90;99.90;;;;;;5083196;28;20044;-82
2023/05/24 03:42:32;;;;;;;45.95;6.97;;;7.90;99.90;;;;;;5074512;28;20032;-83
2023/05/24 03:44:57;;;;;;;49.38;6.68;;;7.90;99.90;;;;;;5077318;28;20024;-82
2023/05/24 03:47:23;;;;;;;46.20;8.13;;;8.00;99.90;;;;;;5082379;28;20036;-82
2023/05/24 03:49:48;;;;;;;38.10;6.68;;;8.00;99.90;;;;;;5076385;28;20409;-83
2023/05/24 03:52:14;;;;;;;59.40;7.28;;;8.10;99.90;;;;;;5084820;28;20194;-83
2023/05/24 03:54:40;;;;;;;45.20;7.72;;;8.10;99.90;;;;;;5085478;28;20442;-82
2023/05/24 03:57:09;;;;;;;53.95;9.13;;;8.10;99.90;;;;;;5083150;28;20035;-82
2023/05/24 03:59:35;;;;;;;33.10;8.13;;;8.10;99.90;;;;;;5073622;28;20039;-82
2023/05/24 04:02:00;;;;;;;44.80;7.03;;;8.10;99.90;;;;;;5079797;28;20533;-83
2023/05/24 04:04:26;;;;;;;55.38;11.85;;;8.10;99.90;;;;;;5075292;28;20385;-83
2023/05/24 04:06:52;;;;;;;42.78;7.72;;;8.10;99.90;;;;;;5082531;28;20050;-83
2023/05/24 04:09:18;;;;;;;44.90;6.70;;;8.20;99.90;;;;;;5081495;28;20111;-82
2023/05/24 04:11:47;;;;;;;35.13;7.05;;;8.20;99.90;;;;;;5075047;28;20111;-83
2023/05/24 04:14:13;;;;;;;43.92;8.25;;;8.20;99.90;;;;;;5104190;28;20035;-82
2023/05/24 04:16:43;;;;;;;32.20;6.22;;;8.20;99.90;;;;;;5087213;28;20024;-81
2023/05/24 04:19:09;;;;;;;46.97;9.32;;;8.30;99.90;;;;;;5079258;28;20038;-81
2023/05/24 04:21:36;;;;;;;44.60;7.55;;;8.30;99.90;;;;;;5088897;28;20043;-82
2023/05/24 04:24:03;;;;;;;47.10;7.18;;;8.30;99.90;;;;;;5072185;28;20048;-82
2023/05/24 04:26:29;;;;;;;52.42;8.70;;;8.30;99.90;;;;;;5071308;28;20036;-81
2023/05/24 04:28:55;;;;;;;41.15;7.32;;;8.30;99.90;;;;;;5074624;28;20489;-81
2023/05/24 04:31:21;;;;;;;37.58;7.78;;;8.30;99.90;;;;;;5078963;28;20028;-82
2023/05/24 04:33:48;;;;;;;52.60;7.80;;;8.40;99.90;;;;;;5080024;28;20310;-82
2023/05/24 04:36:16;;;;;;;47.95;7.45;;;8.40;99.90;;;;;;5079548;28;20063;-82
2023/05/24 04:38:45;;;;;;;46.97;7.90;;;8.50;99.90;;;;;;5082725;28;20020;-82
2023/05/24 04:41:11;;;;;;;47.28;8.38;;;8.50;99.90;;;;;;5080970;28;20032;-81
2023/05/24 04:43:37;;;;;;;56.03;8.90;;;8.50;99.90;;;;;;5076139;28;20114;-81
2023/05/24 04:46:02;;;;;;;51.08;8.02;;;8.50;99.90;;;;;;5080691;28;20092;-83
2023/05/24 04:48:28;;;;;;;46.92;8.07;;;8.60;99.90;;;;;;5087019;28;20536;-82
2023/05/24 04:50:55;;;;;;;45.25;7.88;;;8.60;99.90;;;;;;5078779;28;20077;-82
2023/05/24 04:53:22;;;;;;;47.08;8.00;;;8.60;99.90;;;;;;5085531;28;20063;-83
2023/05/24 04:55:48;;;;;;;50.67;8.90;;;8.70;99.90;;;;;;5092258;28;20016;-81
2023/05/24 04:58:14;;;;;;;43.42;7.25;;;8.70;99.90;;;;;;5090227;28;20111;-81
2023/05/24 05:00:40;;;;;;;59.70;9.95;;;8.70;99.90;;;;;;5072568;28;20384;-83
2023/05/24 05:03:06;;;;;;;49.50;8.02;;;8.80;99.90;;;;;;5069599;28;20025;-83
2023/05/24 05:05:32;;;;;;;49.63;9.15;;;8.80;99.90;;;;;;5075663;28;20034;-82
2023/05/24 05:07:58;;;;;;;44.75;8.18;;;8.80;99.90;;;;;;5077540;28;21373;-82
2023/05/24 05:10:23;;;;;;;58.35;9.13;;;8.80;99.90;;;;;;5085363;28;20110;-82
2023/05/24 05:12:49;;;;;;;60.50;10.60;;;9.00;99.90;;;;;;5083805;28;20029;-82
2023/05/24 05:15:15;;;;;;;59.20;8.18;;;9.00;99.90;;;;;;5095945;28;20032;-81
2023/05/24 05:17:40;;;;;;;45.28;8.20;;;9.00;99.90;;;;;;5085576;28;20044;-82
2023/05/24 05:20:06;;;;;;;47.13;8.80;;;9.10;99.90;;;;;;5086028;28;20119;-83
2023/05/24 05:22:32;;;;;;;61.05;9.23;;;9.10;99.90;;;;;;5081592;28;20039;-83
2023/05/24 05:24:59;;;;;;;53.47;9.75;;;9.10;99.90;;;;;;5081829;28;20048;-84
2023/05/24 05:27:24;;;;;;;54.13;10.27;;;9.10;99.90;;;;;;5083346;28;20041;-82
2023/05/24 05:29:50;;;;;;;47.05;7.80;;;9.00;99.90;;;;;;5073107;28;20023;-83
2023/05/24 05:32:15;;;;;;;62.20;12.73;;;9.10;99.90;;;;;;5085423;28;20549;-82
2023/05/24 05:34:41;;;;;;;51.28;8.70;;;9.00;99.90;;;;;;5086052;28;20019;-82
2023/05/24 05:37:07;;;;;;;61.90;11.02;;;9.00;99.90;;;;;;5079148;28;20064;-82
2023/05/24 05:39:32;;;;;;;51.55;8.73;;;9.00;99.90;;;;;;5084932;28;20480;-83
2023/05/24 05:41:58;;;;;;;65.03;13.13;;;8.90;99.90;;;;;;5079258;28;20127;-83
2023/05/24 05:44:24;;;;;;;48.83;8.85;;;8.90;99.90;;;;;;5088547;28;20028;-82
2023/05/24 05:46:50;;;;;;;44.97;9.30;;;8.90;99.90;;;;;;5069672;28;20123;-82
2023/05/24 05:49:17;;;;;;;43.35;8.52;;;8.90;99.90;;;;;;5082590;28;20498;-83
2023/05/24 05:51:43;;;;;;;54.83;10.30;;;9.00;99.90;;;;;;5084994;28;20109;-83
2023/05/24 05:54:14;;;;;;;50.28;10.35;;;9.00;99.90;;;;;;5071422;28;20020;-82
2023/05/24 05:56:44;;;;;;;62.95;10.07;;;9.00;99.90;;;;;;5083590;28;20091;-82
2023/05/24 05:59:16;;;;;;;50.55;9.88;;;9.10;99.90;;;;;;5059607;28;20035;-82
2023/05/24 06:01:45;;;;;;;58.72;9.38;;;9.10;99.90;;;;;;5083397;28;20032;-83
2023/05/24 06:04:11;;;;;;;49.30;8.85;;;9.20;99.90;;;;;;5071724;28;20160;-82
2023/05/24 06:06:37;;;;;;;50.63;8.68;;;9.30;99.90;;;;;;5081964;28;20107;-81
2023/05/24 06:09:03;;;;;;;74.03;9.95;;;9.40;99.90;;;;;;5085654;28;20369;-81
2023/05/24 06:11:28;;;;;;;71.93;9.48;;;9.50;99.90;;;;;;5081046;28;20047;-82
2023/05/24 06:13:54;;;;;;;58.50;8.68;;;9.60;99.90;;;;;;5059303;28;20029;-82
2023/05/24 06:16:20;;;;;;;58.85;8.10;;;9.60;99.90;;;;;;5090859;28;20477;-81
2023/05/24 06:18:46;;;;;;;52.58;9.52;;;9.70;99.90;;;;;;5086192;28;20595;-83
2023/05/24 06:21:13;;;;;;;50.17;7.82;;;9.70;99.90;;;;;;5070012;28;20025;-82
2023/05/24 06:23:39;;;;;;;51.53;10.57;;;9.70;99.90;;;;;;5093977;28;20506;-82
2023/05/24 06:26:08;;;;;;;50.15;8.40;;;9.80;99.90;;;;;;5085404;28;20024;-81
2023/05/24 06:28:35;;;;;;;67.47;8.80;;;9.80;99.90;;;;;;5076041;28;20045;-82
2023/05/24 06:31:02;;;;;;;52.72;9.23;;;9.80;99.90;;;;;;5088327;28;20059;-82
2023/05/24 06:33:28;;;;;;;35.80;8.57;;;9.80;99.90;;;;;;5082257;28;20473;-81
2023/05/24 06:35:54;;;;;;;61.35;10.30;;;9.90;99.90;;;;;;5075142;28;20036;-82
2023/05/24 06:38:20;;;;;;;60.25;9.52;;;9.90;99.90;;;;;;5080722;28;20413;-81
2023/05/24 06:40:46;;;;;;;53.53;9.43;;;9.90;99.90;;;;;;5079510;28;20027;-82
2023/05/24 06:43:13;;;;;;;41.95;9.02;;;10.00;99.90;;;;;;5087718;28;20485;-82
2023/05/24 06:45:38;;;;;;;45.80;9.05;;;10.00;99.90;;;;;;5074960;28;20024;-83
2023/05/24 06:48:04;;;;;;;56.75;10.43;;;10.00;99.90;;;;;;5063258;28;20036;-82
2023/05/24 06:50:30;;;;;;;55.83;9.88;;;10.00;99.90;;;;;;5086165;28;20078;-82
2023/05/24 06:52:55;;;;;;;46.72;9.88;;;10.10;99.90;;;;;;5090530;28;20088;-82
2023/05/24 06:55:21;;;;;;;52.05;11.70;;;10.10;99.90;;;;;;5084733;28;20031;-81
2023/05/24 06:57:47;;;;;;;45.25;7.75;;;10.10;99.90;;;;;;5089177;28;20024;-81
2023/05/24 07:00:13;;;;;;;48.28;8.27;;;10.00;99.90;;;;;;5083571;28;20081;-81
2023/05/24 07:02:39;;;;;;;50.10;8.98;;;10.10;99.90;;;;;;5083921;28;20168;-82
2023/05/24 07:05:07;;;;;;;63.25;9.93;;;10.00;99.90;;;;;;5084613;28;20481;-81
2023/05/24 07:07:32;;;;;;;49.63;7.75;;;10.00;99.90;;;;;;5083481;28;20069;-82
2023/05/24 07:09:58;;;;;;;46.67;8.10;;;10.10;99.90;;;;;;5085412;28;20032;-81
2023/05/24 07:12:23;;;;;;;51.58;9.13;;;10.20;99.90;;;;;;5071886;28;20032;-82
2023/05/24 07:14:49;;;;;;;59.20;8.68;;;10.20;99.90;;;;;;5078632;28;20513;-81
2023/05/24 07:17:15;;;;;;;47.42;8.20;;;10.30;99.90;;;;;;5092170;28;20173;-80
2023/05/24 07:19:42;;;;;;;47.00;8.40;;;10.30;99.90;;;;;;5083687;28;20058;-82
2023/05/24 07:22:07;;;;;;;48.75;8.50;;;10.40;99.90;;;;;;5078279;28;20027;-80
2023/05/24 07:24:33;;;;;;;47.80;8.35;;;10.40;99.90;;;;;;5077260;28;20040;-81
2023/05/24 07:26:59;;;;;;;47.50;8.38;;;10.40;99.90;;;;;;5074741;28;20424;-81
2023/05/24 07:29:24;;;;;;;52.85;9.70;;;10.50;99.90;;;;;;5093646;28;20231;-81
2023/05/24 07:31:51;;;;;;;51.38;8.85;;;10.50;99.90;;;;;;5058793;28;20029;-82
2023/05/24 07:34:26;;;;;;;38.08;7.78;;;10.50;99.90;;;;;;5092084;28;20066;-82
2023/05/24 07:36:52;;;;;;;34.08;6.80;;;10.50;99.90;;;;;;5061235;28;20046;-80
2023/05/24 07:39:17;;;;;;;46.45;7.43;;;10.50;99.90;;;;;;5089486;28;20482;-80
2023/05/24 07:41:43;;;;;;;53.67;9.10;;;10.60;99.90;;;;;;5080838;28;20405;-82
2023/05/24 07:44:12;;;;;;;39.30;6.57;;;10.60;99.90;;;;;;5089626;28;20500;-80
2023/05/24 07:46:38;;;;;;;45.83;7.63;;;10.60;99.90;;;;;;5088167;28;20126;-81
2023/05/24 07:49:03;;;;;;;39.35;6.80;;;10.60;99.90;;;;;;5087269;28;20520;-83
2023/05/24 07:51:29;;;;;;;59.78;7.88;;;10.70;99.90;;;;;;5082859;28;20049;-81
2023/05/24 07:53:55;;;;;;;46.30;6.80;;;10.70;99.90;;;;;;5080375;28;20012;-81
2023/05/24 07:56:20;;;;;;;57.42;8.18;;;10.70;99.90;;;;;;5087284;28;20027;-82
2023/05/24 07:58:48;;;;;;;55.00;9.15;;;10.70;99.90;;;;;;5083020;28;20040;-80
2023/05/24 08:01:13;;;;;;;53.28;9.63;;;10.90;99.90;;;;;;5074306;28;20455;-82
2023/05/24 08:03:39;;;;;;;43.95;9.20;;;10.90;99.90;;;;;;5085797;28;20024;-81
2023/05/24 08:06:05;;;;;;;42.25;6.97;;;11.00;99.90;;;;;;5089369;28;21060;-80
2023/05/24 08:08:30;;;;;;;47.22;8.77;;;10.90;99.90;;;;;;5078469;28;20465;-81
2023/05/24 08:10:56;;;;;;;39.45;6.80;;;10.90;99.90;;;;;;5091032;28;20103;-81
2023/05/24 08:13:21;;;;;;;43.20;6.60;;;10.90;99.90;;;;;;5070740;28;20033;-80
2023/05/24 08:15:47;;;;;;;44.55;7.00;;;11.00;99.90;;;;;;5086231;28;20436;-81
2023/05/24 08:18:13;;;;;;;51.00;7.88;;;11.00;99.90;;;;;;5079997;28;20486;-80
2023/05/24 08:20:39;;;;;;;42.03;8.43;;;11.00;99.90;;;;;;5080680;28;20036;-82
2023/05/24 08:23:05;;;;;;;41.53;7.30;;;11.00;99.90;;;;;;5083278;28;20389;-80
2023/05/24 08:25:32;;;;;;;39.47;7.63;;;11.00;99.90;;;;;;5089953;28;20044;-79
2023/05/24 08:27:58;;;;;;;46.10;7.50;;;10.90;99.90;;;;;;5061433;28;20040;-80
2023/05/24 08:30:23;;;;;;;47.25;7.60;;;10.90;99.90;;;;;;5077662;28;20081;-81
2023/05/24 08:32:51;;;;;;;41.35;7.82;;;10.80;99.90;;;;;;5092700;28;20473;-80
2023/05/24 08:35:16;;;;;;;53.28;8.13;;;10.80;99.90;;;;;;5088138;28;20023;-81
2023/05/24 08:37:42;;;;;;;39.25;7.90;;;10.80;99.90;;;;;;5091105;28;20031;-81
2023/05/24 08:40:11;;;;;;;39.17;6.28;;;10.90;99.90;;;;;;5080634;28;20043;-82
2023/05/24 08:42:38;;;;;;;42.60;7.15;;;10.90;99.90;;;;;;5092526;28;20491;-81
2023/05/24 08:45:10;;;;;;;37.45;7.10;;;11.00;99.90;;;;;;5083961;28;20041;-80
2023/05/24 08:47:37;;;;;;;36.47;6.75;;;11.00;99.90;;;;;;5080346;28;20028;-80
2023/05/24 08:50:05;;;;;;;48.55;6.65;;;11.00;99.90;;;;;;5081660;28;20028;-81
2023/05/24 08:52:31;;;;;;;32.00;6.63;;;11.10;99.90;;;;;;5081062;28;20035;-80
2023/05/24 08:55:00;;;;;;;35.58;6.72;;;11.20;99.90;;;;;;5075708;28;20035;-79
2023/05/24 08:57:26;;;;;;;32.25;5.97;;;11.30;99.90;;;;;;5078447;28;20107;-80
2023/05/24 08:59:55;;;;;;;42.78;6.60;;;11.40;99.90;;;;;;5089605;28;20378;-80
2023/05/24 09:02:22;;;;;;;28.35;6.28;;;11.50;99.90;;;;;;5076478;28;20397;-81
2023/05/24 09:04:52;;;;;;;36.20;6.45;;;11.60;99.90;;;;;;5081013;28;20459;-81
2023/05/24 09:07:22;;;;;;;23.05;4.95;;;11.60;99.90;;;;;;5090839;28;20027;-80
2023/05/24 09:10:08;;;;;;;30.58;5.50;;;11.70;99.90;;;;;;5087158;28;20036;-81
2023/05/24 09:12:36;;;;;;;21.63;4.53;;;11.80;99.90;;;;;;5079310;28;20017;-81
2023/05/24 09:15:03;;;;;;;30.98;6.43;;;11.80;99.90;;;;;;5084094;28;20023;-81
2023/05/24 09:17:31;;;;;;;38.53;7.65;;;11.80;99.90;;;;;;5094122;28;20122;-81
2023/05/24 09:20:01;;;;;;;27.77;5.78;;;11.90;99.90;;;;;;5082310;28;20033;-80
2023/05/24 09:22:29;;;;;;;43.20;7.85;;;11.90;99.90;;;;;;5075985;28;20035;-80
2023/05/24 09:25:01;;;;;;;35.60;6.22;;;11.90;99.90;;;;;;5067766;28;20424;-81
2023/05/24 09:27:27;;;;;;;32.38;6.72;;;11.80;99.90;;;;;;5070835;28;20115;-78
2023/05/24 09:29:54;;;;;;;39.00;6.40;;;11.80;99.90;;;;;;5079168;28;20462;-80
2023/05/24 09:32:22;;;;;;;36.65;7.10;;;11.70;99.90;;;;;;5085328;28;20061;-80
2023/05/24 09:34:50;;;;;;;47.40;7.43;;;11.60;99.90;;;;;;5100538;28;20115;-81
2023/05/24 09:37:18;;;;;;;34.83;6.63;;;11.70;99.90;;;;;;5091999;28;20027;-80
2023/05/24 09:39:49;;;;;;;28.88;6.43;;;11.70;99.90;;;;;;5093102;28;20480;-79
2023/05/24 09:42:22;;;;;;;24.33;6.57;;;11.60;99.90;;;;;;5079725;28;20038;-80
2023/05/24 09:45:05;;;;;;;36.00;6.82;;;11.60;99.90;;;;;;5088986;28;20028;-80
2023/05/24 09:47:33;;;;;;;27.23;6.47;;;11.60;99.90;;;;;;5089716;28;20028;-80
2023/05/24 09:50:00;;;;;;;34.10;6.45;;;11.60;99.90;;;;;;5080561;28;20020;-81
2023/05/24 09:52:26;;;;;;;38.05;6.72;;;11.60;99.90;;;;;;5085758;28;20154;-80
2023/05/24 09:54:52;;;;;;;36.28;6.45;;;11.70;99.90;;;;;;5088925;28;20026;-80
2023/05/24 09:57:21;;;;;;;32.70;7.15;;;11.80;99.90;;;;;;5097291;28;20489;-80
2023/05/24 09:59:51;;;;;;;30.00;7.25;;;11.90;99.90;;;;;;5091923;28;20508;-80
2023/05/24 10:02:20;;;;;;;35.72;7.18;;;12.00;99.90;;;;;;5090019;28;20027;-79
2023/05/24 10:04:46;;;;;;;27.60;6.07;;;12.00;99.90;;;;;;5087654;28;20031;-80
2023/05/24 10:07:14;;;;;;;37.35;6.35;;;12.10;99.90;;;;;;5087614;28;20362;-80
2023/05/24 10:09:41;;;;;;;25.30;5.72;;;12.10;99.90;;;;;;5082954;28;20031;-80
2023/05/24 10:12:07;;;;;;;36.45;7.13;;;12.10;99.90;;;;;;5083407;28;20024;-79
2023/05/24 10:14:35;;;;;;;25.10;6.25;;;12.00;99.90;;;;;;5093886;28;20032;-79
2023/05/24 10:17:08;;;;;;;23.45;5.57;;;12.00;99.90;;;;;;5093778;28;20039;-80
2023/05/24 10:19:35;;;;;;;36.50;7.47;;;11.90;99.90;;;;;;5088303;28;20024;-80
2023/05/24 10:22:07;;;;;;;31.50;6.18;;;11.90;99.90;;;;;;5088333;28;20031;-80
2023/05/24 10:24:46;;;;;;;27.77;5.55;;;11.90;99.90;;;;;;5088122;28;20036;-79
2023/05/24 10:27:17;;;;;;;48.85;6.60;;;12.00;99.90;;;;;;5096158;28;20036;-79
2023/05/24 10:30:04;;;;;;;24.60;5.57;;;12.10;99.90;;;;;;5080012;28;20027;-80
2023/05/24 10:32:34;;;;;;;25.98;5.32;;;12.10;99.90;;;;;;5069896;28;20067;-80
2023/05/24 10:35:01;;;;;;;48.40;7.85;;;12.20;99.90;;;;;;5078026;28;20336;-79
2023/05/24 10:37:29;;;;;;;23.33;5.80;;;12.20;99.90;;;;;;5068888;28;20035;-80
2023/05/24 10:39:55;;;;;;;24.90;4.85;;;12.20;99.90;;;;;;5073487;28;20154;-80
2023/05/24 10:42:20;;;;;;;26.90;4.97;;;12.10;99.90;;;;;;5075691;28;20166;-80
2023/05/24 10:44:46;;;;;;;26.95;5.40;;;12.10;99.90;;;;;;5086689;28;20039;-79
2023/05/24 10:47:12;;;;;;;37.13;6.57;;;12.00;99.90;;;;;;5082008;28;20024;-79
2023/05/24 10:49:53;;;;;;;28.80;6.20;;;11.90;99.90;;;;;;5080263;28;20068;-81
2023/05/24 10:52:18;;;;;;;17.40;4.82;;;11.80;99.90;;;;;;5080523;28;20101;-80
2023/05/24 10:55:03;;;;;;;21.00;5.43;;;11.80;99.90;;;;;;5093519;28;20024;-80
2023/05/24 10:57:30;;;;;;;24.38;6.15;;;11.70;99.90;;;;;;5079884;28;20032;-80
2023/05/24 10:59:57;;;;;;;25.75;6.10;;;11.70;99.90;;;;;;5065200;28;20055;-80
2023/05/24 11:02:27;;;;;;;37.75;6.47;;;11.70;99.90;;;;;;5069652;28;20016;-81
2023/05/24 11:04:55;;;;;;;47.60;7.07;;;11.70;99.90;;;;;;5067010;28;20076;-81
2023/05/24 11:07:23;;;;;;;30.50;7.00;;;11.70;99.90;;;;;;5084920;28;20024;-81
2023/05/24 11:09:56;;;;;;;31.35;7.07;;;11.70;99.90;;;;;;5068398;28;20051;-80
2023/05/24 11:12:29;;;;;;;30.17;7.07;;;11.70;99.90;;;;;;5085210;28;20027;-81
2023/05/24 11:14:55;;;;;;;37.33;7.25;;;11.70;99.90;;;;;;5081379;28;20036;-81
2023/05/24 11:17:22;;;;;;;36.08;7.10;;;11.70;99.90;;;;;;5083380;28;20089;-81
2023/05/24 11:19:52;;;;;;;20.92;5.80;;;11.70;99.90;;;;;;5068116;28;20052;-80
2023/05/24 11:22:23;;;;;;;31.65;5.38;;;11.80;99.90;;;;;;5074519;28;20046;-81
2023/05/24 11:24:50;;;;;;;23.58;5.47;;;11.80;99.90;;;;;;5070117;28;20071;-80
2023/05/24 11:27:16;;;;;;;18.48;5.05;;;11.90;99.90;;;;;;5076860;28;20027;-80
2023/05/24 11:29:46;;;;;;;24.00;5.28;;;11.90;99.90;;;;;;5071559;28;20041;-80
2023/05/24 11:32:18;;;;;;;26.40;5.15;;;12.00;99.90;;;;;;5070229;28;20038;-80
2023/05/24 11:34:47;;;;;;;23.38;4.80;;;12.00;99.90;;;;;;5069831;28;20115;-80
2023/05/24 11:37:14;;;;;;;24.65;5.68;;;12.10;99.90;;;;;;5072605;28;20026;-80
2023/05/24 11:39:40;;;;;;;23.15;5.90;;;12.20;99.90;;;;;;5086110;28;20028;-80
2023/05/24 11:42:07;;;;;;;27.08;6.65;;;12.30;99.90;;;;;;5081325;28;20079;-80
2023/05/24 11:44:34;;;;;;;32.17;5.80;;;12.40;99.90;;;;;;5078734;28;20024;-80
2023/05/24 11:47:08;;;;;;;30.00;6.07;;;12.50;99.90;;;;;;5070938;28;20079;-80
2023/05/24 11:49:34;;;;;;;28.73;6.13;;;12.50;99.90;;;;;;5083897;28;20027;-79
2023/05/24 11:52:01;;;;;;;27.75;5.85;;;12.60;99.90;;;;;;5075093;28;20445;-80
2023/05/24 11:54:27;;;;;;;31.63;5.90;;;12.70;99.90;;;;;;5077484;28;20069;-80
2023/05/24 11:56:54;;;;;;;26.10;5.35;;;12.80;99.90;;;;;;5080695;28;20029;-80
2023/05/24 11:59:27;;;;;;;30.02;6.60;;;12.90;99.90;;;;;;5081690;28;20033;-80
2023/05/24 12:02:00;;;;;;;23.58;6.40;;;12.90;99.90;;;;;;5060515;28;20043;-80
2023/05/24 12:04:29;;;;;;;25.98;5.63;;;12.90;99.90;;;;;;5076410;28;20024;-80
2023/05/24 12:06:54;;;;;;;22.50;4.82;;;12.80;99.90;;;;;;5081210;28;21418;-80
2023/05/24 12:09:21;;;;;;;26.73;5.20;;;12.70;99.90;;;;;;5080311;28;20048;-81
2023/05/24 12:11:48;;;;;;;20.15;5.13;;;12.70;99.90;;;;;;5082448;28;20287;-81
2023/05/24 12:14:32;;;;;;;36.05;5.93;;;12.70;99.90;;;;;;5094906;28;20091;-80
2023/05/24 12:16:59;;;;;;;19.63;5.88;;;12.60;99.90;;;;;;5095128;28;20117;-80
2023/05/24 12:19:35;;;;;;;20.40;5.25;;;12.60;99.90;;;;;;5095062;28;20031;-80
2023/05/24 12:22:06;;;;;;;25.95;5.90;;;12.50;99.90;;;;;;5085921;28;20031;-80
2023/05/24 12:24:32;;;;;;;18.58;4.72;;;12.50;99.90;;;;;;5075311;28;20521;-80
2023/05/24 12:27:05;;;;;;;29.52;5.57;;;12.50;99.90;;;;;;5083837;28;20028;-78
2023/05/24 12:29:49;;;;;;;29.77;6.72;;;12.60;99.90;;;;;;5077981;28;22256;-81
2023/05/24 12:32:16;;;;;;;24.98;5.57;;;12.60;99.90;;;;;;5087312;28;20020;-80
2023/05/24 12:34:43;;;;;;;24.45;5.20;;;12.60;99.90;;;;;;5074955;28;20048;-82
2023/05/24 12:37:11;;;;;;;25.08;6.18;;;12.70;99.90;;;;;;5077019;28;20050;-82
2023/05/24 12:39:38;;;;;;;18.90;5.22;;;12.80;99.90;;;;;;5086337;28;20388;-81
2023/05/24 12:42:04;;;;;;;24.60;4.93;;;12.90;99.90;;;;;;5085404;28;20470;-80
2023/05/24 12:44:32;;;;;;;25.02;5.50;;;12.90;99.90;;;;;;5070314;28;20423;-80